Página principal
METAR-TAF:

METAR-TAF

Aeroportos :

Vientiane, Laos

Aeroporto Internacional de Wattay

latitude: 17-57N, longitude: 102-34E, altura: 171 m

Observação actual do tempo

O boletim foi feito há 2 horas e 48 minutos, às 16:00 UTC
Vento 4 kt de es-nordeste
Temperatura 28°C
Humidade 70%
Pressão 1011 hPa
Visibilidade: 4000 m
Poucas nuvensa uma altura de 5000 ft
Nuvens fragmentadasa uma altura de 10000 ft
neblina

METAR: VLVT 271600Z 06004KT 4000 BR FEW050 BKN100 28/22 Q1011 NOSIG

Hora: 01:48 (18:48 UTC)

Previsão

O boletim foi feito há 1 hora e 48 minutos, às 17:00 UTC
Previsão válida de 27 às 18 UTC a 28 às 18 UTC
Vento 4 kt de oes-noroeste
Visibilidade: 7000 m
Nuvens dispersasa uma altura de 1600 ft
Nuvens dispersasa uma altura de 4000 ft
Temporariamente
de 27 às 18 UTC a 28 às 00 UTC
Visibilidade: 4000 m
Nuvens dispersasa uma altura de 4000 ft
Nuvens fragmentadasa uma altura de 10000 ft
neblina

TAF: VLVT 271700Z 2718/2818 30004KT 7000 SCT016 SCT040 TEMPO 2718/2800 4000 BR SCT040 BKN100

Observações e previsões do tempo de mais de 4000 aeroportos (mensagens METAR e TAF).

As estações disponíveis são os pontos amarelos e vermelhos sobre o mapa.

Mova o rato sobre o mapa para ver o nome da estação.

Depois clique no ponto para visualizar as observações e previsões meteorológicas.

Para alterar o mapa : clique nos botões verdes com uma cruz preta para aumentar o zoom; no botão verde com uma pitada de zoom; ou nas setas verdes para mapas adjacentes.


METAR-TAF: